Eko 2 — SY9957 — position and weather

sailwx.info

Track history (hours):
 
Tides and Currents Weather Stations Pressure Air Temp Water Temp Dewpoint Dewpoint Depression Visibility Wind Speed Wind Dir Waves Ship Positions

Eko 2

Last reported at 2014-Jul-31 18:21 UTC. Time now 2014-Jul-31 19:48 UTC.
Position N 38°02' E 023°33'.

Length 89 m; draft 4.3 m.

Type: Ship (hazmat cat A). MMSI: 240827000.

Date/timePositionNaut miles runAvg speedWind from/ knotsBaromVisibWave heightAir tempDewpointWater temp
2014-Jul-31 18:21N 38°02' E 023°33'0 0.0
2014-Jul-31 17:27N 38°02' E 023°33'0 0.1
2014-Jul-31 16:24N 38°02' E 023°33'0 0.0
2014-Jul-31 15:06N 38°02' E 023°33'0 0.0
2014-Jul-31 12:30N 38°02' E 023°33'7 7.2
2014-Jul-31 11:34N 37°56' E 023°36'10 9.5
2014-Jul-31 10:33N 37°47' E 023°42'1110.3
2014-Jul-31 09:30N 37°39' E 023°51'1510.9
2014-Jul-31 08:11N 37°33' E 024°07'1710.8
2014-Jul-31 06:33N 37°29' E 024°29'1111.2
2014-Jul-31 05:32N 37°24' E 024°42'1111.3
2014-Jul-31 04:33N 37°19' E 024°54'1111.5
2014-Jul-31 03:33N 37°17' E 025°09'1211.8
2014-Jul-31 02:33N 37°16' E 025°23'1111.3
2014-Jul-31 01:34N 37°14' E 025°37'1111.1
2014-Jul-31 00:33N 37°12' E 025°51'1111.0
2014-Jul-30 23:33N 37°11' E 026°05'1111.0
2014-Jul-30 22:33N 37°09' E 026°18'1111.2
2014-Jul-30 21:33N 37°08' E 026°32'1111.3
2014-Jul-30 20:33N 37°06' E 026°46'4 0.9
2014-Jul-30 16:16N 37°08' E 026°51'3 0.4
2014-Jul-30 08:13N 37°05' E 026°49'710.2
2014-Jul-30 07:33N 36°58' E 026°50'20 9.8
2014-Jul-30 05:33N 36°39' E 026°54'30 9.9
2014-Jul-30 02:33N 36°13' E 027°13'46 1.0
2014-Jul-28 04:26N 35°35' E 026°42'1010.7
2014-Jul-28 03:32N 35°39' E 026°31'3310.9
2014-Jul-28 00:29N 35°57' E 025°56'1011.2
2014-Jul-27 23:33N 36°02' E 025°46'1110.8
2014-Jul-27 22:33N 36°09' E 025°35'1110.6
2014-Jul-27 21:33N 36°15' E 025°24'8 7.9
2014-Jul-27 20:33N 36°23' E 025°24'2 1.6
2014-Jul-27 19:33N 36°23' E 025°26'0 0.0
2014-Jul-27 17:09N 36°23' E 025°26'1 0.1
2014-Jul-27 05:33N 36°24' E 025°25'1010.1
2014-Jul-27 04:34N 36°32' E 025°19'8 8.1
2014-Jul-27 03:34N 36°36' E 025°27'9 8.8
2014-Jul-27 02:34N 36°40' E 025°37'9 9.1
2014-Jul-27 01:33N 36°44' E 025°48'19 6.5
2014-Jul-26 22:34N 36°60' E 026°01'6 0.5
2014-Jul-26 11:19N 36°54' E 025°58'7 9.0
2014-Jul-26 10:33N 36°60' E 025°53'1111.0
2014-Jul-26 09:33N 37°06' E 025°42'1111.4
2014-Jul-26 08:33N 37°13' E 025°31'10 9.7
2014-Jul-26 07:33N 37°11' E 025°19'10 9.7
2014-Jul-26 06:33N 37°07' E 025°08'2 1.9
2014-Jul-26 05:33N 37°05' E 025°09'0 0.0
2014-Jul-26 03:16N 37°05' E 025°09'0 0.0
2014-Jul-26 01:06N 37°05' E 025°09'0 0.0
2014-Jul-26 00:20N 37°05' E 025°09'0 0.0
2014-Jul-25 23:32N 37°05' E 025°09'0 0.0
2014-Jul-25 22:32N 37°05' E 025°09'0 0.0
2014-Jul-25 21:32N 37°05' E 025°09'0 0.0
2014-Jul-25 20:26N 37°05' E 025°09'0 0.0
2014-Jul-25 19:29N 37°05' E 025°09'0 0.0
2014-Jul-25 18:29N 37°05' E 025°09'0 0.1
2014-Jul-25 17:33N 37°05' E 025°09'5 4.9
2014-Jul-25 16:33N 37°07' E 025°03'9 9.4
2014-Jul-25 15:33N 37°00' E 024°55'10 9.7
2014-Jul-25 14:32N 36°53' E 024°46'10 9.6
2014-Jul-25 13:33N 36°52' E 024°34'9 9.4
2014-Jul-25 12:33N 36°49' E 024°23'6 5.8
2014-Jul-25 11:30N 36°43' E 024°27'0 0.0
2014-Jul-25 10:33N 36°43' E 024°27'0 0.0
2014-Jul-25 09:15N 36°43' E 024°27'0 0.0
2014-Jul-25 06:05N 36°43' E 024°27'0 0.0
2014-Jul-24 23:29N 36°43' E 024°27'4 0.5
2014-Jul-24 15:12N 36°47' E 024°25'10 3.8
2014-Jul-24 12:33N 36°49' E 024°37'7 7.0
2014-Jul-24 11:31N 36°55' E 024°34'9 1.2
2014-Jul-24 04:32N 37°04' E 024°34'5 0.8
2014-Jul-23 22:19N 37°09' E 024°31'0 0.0
2014-Jul-23 07:12N 37°09' E 024°31'3 5.3
2014-Jul-23 06:33N 37°07' E 024°35'1010.0
2014-Jul-23 05:31N 37°09' E 024°47'1010.8
2014-Jul-23 04:33N 37°13' E 024°59'1110.9
2014-Jul-23 03:33N 37°17' E 025°12'1110.7
2014-Jul-23 02:34N 37°20' E 025°25'1110.8
2014-Jul-23 01:32N 37°23' E 025°39'1111.5
2014-Jul-23 00:33N 37°26' E 025°52'1311.9
2014-Jul-22 23:29N 37°30' E 026°08'1111.4
2014-Jul-22 22:32N 37°35' E 026°20'6 1.0
2014-Jul-22 16:20N 37°39' E 026°25'8 9.6
2014-Jul-22 15:32N 37°40' E 026°15'7 0.5
2014-Jul-22 01:08N 37°36' E 026°22'610.3
2014-Jul-22 00:32N 37°30' E 026°22'1110.3
2014-Jul-21 23:27N 37°20' E 026°27'910.2
2014-Jul-21 22:34N 37°13' E 026°35'  
Track history (hours):
 
Tides and Currents Weather Stations Pressure Air Temp Water Temp Dewpoint Dewpoint Depression Visibility Wind Speed Wind Dir Waves Ship Positions

Eko 2

Last reported at 2014-Jul-31 18:21 UTC. Time now 2014-Jul-31 19:48 UTC.
Position N 38°02' E 023°33'.

Length 89 m; draft 4.3 m.

Type: Ship (hazmat cat A). MMSI: 240827000.

Date/timePositionNaut miles runAvg speedWind from/ knotsBaromVisibWave heightAir tempDewpointWater temp
2014-Jul-31 18:21N 38°02' E 023°33'0 0.0
2014-Jul-31 17:27N 38°02' E 023°33'0 0.1
2014-Jul-31 16:24N 38°02' E 023°33'0 0.0
2014-Jul-31 15:06N 38°02' E 023°33'0 0.0
2014-Jul-31 12:30N 38°02' E 023°33'7 7.2
2014-Jul-31 11:34N 37°56' E 023°36'10 9.5
2014-Jul-31 10:33N 37°47' E 023°42'1110.3
2014-Jul-31 09:30N 37°39' E 023°51'1510.9
2014-Jul-31 08:11N 37°33' E 024°07'1710.8
2014-Jul-31 06:33N 37°29' E 024°29'1111.2
2014-Jul-31 05:32N 37°24' E 024°42'1111.3
2014-Jul-31 04:33N 37°19' E 024°54'1111.5
2014-Jul-31 03:33N 37°17' E 025°09'1211.8
2014-Jul-31 02:33N 37°16' E 025°23'1111.3
2014-Jul-31 01:34N 37°14' E 025°37'1111.1
2014-Jul-31 00:33N 37°12' E 025°51'1111.0
2014-Jul-30 23:33N 37°11' E 026°05'1111.0
2014-Jul-30 22:33N 37°09' E 026°18'1111.2
2014-Jul-30 21:33N 37°08' E 026°32'1111.3
2014-Jul-30 20:33N 37°06' E 026°46'4 0.9
2014-Jul-30 16:16N 37°08' E 026°51'3 0.4
2014-Jul-30 08:13N 37°05' E 026°49'710.2
2014-Jul-30 07:33N 36°58' E 026°50'20 9.8
2014-Jul-30 05:33N 36°39' E 026°54'30 9.9
2014-Jul-30 02:33N 36°13' E 027°13'46 1.0
2014-Jul-28 04:26N 35°35' E 026°42'1010.7
2014-Jul-28 03:32N 35°39' E 026°31'3310.9
2014-Jul-28 00:29N 35°57' E 025°56'1011.2
2014-Jul-27 23:33N 36°02' E 025°46'1110.8
2014-Jul-27 22:33N 36°09' E 025°35'1110.6
2014-Jul-27 21:33N 36°15' E 025°24'8 7.9
2014-Jul-27 20:33N 36°23' E 025°24'2 1.6
2014-Jul-27 19:33N 36°23' E 025°26'0 0.0
2014-Jul-27 17:09N 36°23' E 025°26'1 0.1
2014-Jul-27 05:33N 36°24' E 025°25'1010.1
2014-Jul-27 04:34N 36°32' E 025°19'8 8.1
2014-Jul-27 03:34N 36°36' E 025°27'9 8.8
2014-Jul-27 02:34N 36°40' E 025°37'9 9.1
2014-Jul-27 01:33N 36°44' E 025°48'19 6.5
2014-Jul-26 22:34N 36°60' E 026°01'6 0.5
2014-Jul-26 11:19N 36°54' E 025°58'7 9.0
2014-Jul-26 10:33N 36°60' E 025°53'1111.0
2014-Jul-26 09:33N 37°06' E 025°42'1111.4
2014-Jul-26 08:33N 37°13' E 025°31'10 9.7
2014-Jul-26 07:33N 37°11' E 025°19'10 9.7
2014-Jul-26 06:33N 37°07' E 025°08'2 1.9
2014-Jul-26 05:33N 37°05' E 025°09'0 0.0
2014-Jul-26 03:16N 37°05' E 025°09'0 0.0
2014-Jul-26 01:06N 37°05' E 025°09'0 0.0
2014-Jul-26 00:20N 37°05' E 025°09'0 0.0
2014-Jul-25 23:32N 37°05' E 025°09'0 0.0
2014-Jul-25 22:32N 37°05' E 025°09'0 0.0
2014-Jul-25 21:32N 37°05' E 025°09'0 0.0
2014-Jul-25 20:26N 37°05' E 025°09'0 0.0
2014-Jul-25 19:29N 37°05' E 025°09'0 0.0
2014-Jul-25 18:29N 37°05' E 025°09'0 0.1
2014-Jul-25 17:33N 37°05' E 025°09'5 4.9
2014-Jul-25 16:33N 37°07' E 025°03'9 9.4
2014-Jul-25 15:33N 37°00' E 024°55'10 9.7
2014-Jul-25 14:32N 36°53' E 024°46'10 9.6
2014-Jul-25 13:33N 36°52' E 024°34'9 9.4
2014-Jul-25 12:33N 36°49' E 024°23'6 5.8
2014-Jul-25 11:30N 36°43' E 024°27'0 0.0
2014-Jul-25 10:33N 36°43' E 024°27'0 0.0
2014-Jul-25 09:15N 36°43' E 024°27'0 0.0
2014-Jul-25 06:05N 36°43' E 024°27'0 0.0
2014-Jul-24 23:29N 36°43' E 024°27'4 0.5
2014-Jul-24 15:12N 36°47' E 024°25'10 3.8
2014-Jul-24 12:33N 36°49' E 024°37'7 7.0
2014-Jul-24 11:31N 36°55' E 024°34'9 1.2
2014-Jul-24 04:32N 37°04' E 024°34'5 0.8
2014-Jul-23 22:19N 37°09' E 024°31'0 0.0
2014-Jul-23 07:12N 37°09' E 024°31'3 5.3
2014-Jul-23 06:33N 37°07' E 024°35'1010.0
2014-Jul-23 05:31N 37°09' E 024°47'1010.8
2014-Jul-23 04:33N 37°13' E 024°59'1110.9
2014-Jul-23 03:33N 37°17' E 025°12'1110.7
2014-Jul-23 02:34N 37°20' E 025°25'1110.8
2014-Jul-23 01:32N 37°23' E 025°39'1111.5
2014-Jul-23 00:33N 37°26' E 025°52'1311.9
2014-Jul-22 23:29N 37°30' E 026°08'1111.4
2014-Jul-22 22:32N 37°35' E 026°20'6 1.0
2014-Jul-22 16:20N 37°39' E 026°25'8 9.6
2014-Jul-22 15:32N 37°40' E 026°15'7 0.5
2014-Jul-22 01:08N 37°36' E 026°22'610.3
2014-Jul-22 00:32N 37°30' E 026°22'1110.3
2014-Jul-21 23:27N 37°20' E 026°27'910.2
2014-Jul-21 22:34N 37°13' E 026°35'  

Dump ship's entire track history